MTN001 KIAH-KHSV
Flight info
| Callsign | MTN001 |
|---|---|
| Flight time | 1h 25m |
| Altitude | 33000 |
| Route | STRYA8 DPATY MHZ IGB |
| Aircraft | CRJ7/M-SDFGIRWY/S |
Departure
| Time | 2026-04-23 13:36 |
|---|---|
| Airport | George Bush Intercontinental Airport (KIAH) |
Arrival
| Time | 2026-04-23 15:02 |
|---|---|
| Airport | Huntsville International Airport (KHSV) |
| Time | Latitude | Longitude | Altitude | Speed | Heading |
|---|---|---|---|---|---|
| 2026-04-23 12:57 | 29.98433 | -95.34737 | 105 ft | 0 kts | 44° |
| 2026-04-23 13:19 | 29.98426 | -95.34746 | 105 ft | 4 kts | 54° |
| 2026-04-23 13:19 | 29.98422 | -95.34765 | 105 ft | 4 kts | 136° |
| 2026-04-23 13:19 | 29.98444 | -95.34776 | 105 ft | 4 kts | 148° |
| 2026-04-23 13:19 | 29.98452 | -95.34782 | 105 ft | 4 kts | 49° |
| 2026-04-23 13:20 | 29.98444 | -95.34791 | 105 ft | 4 kts | 126° |
| 2026-04-23 13:20 | 29.98422 | -95.34782 | 105 ft | 4 kts | 175° |
| 2026-04-23 13:20 | 29.98414 | -95.34781 | 105 ft | 4 kts | 178° |
| 2026-04-23 13:20 | 29.98412 | -95.34782 | 104 ft | 1 kts | 180° |
| 2026-04-23 13:32 | 29.98409 | -95.34782 | 105 ft | 0 kts | 186° |
| 2026-04-23 13:33 | 29.98386 | -95.34799 | 105 ft | 10 kts | 240° |
| 2026-04-23 13:33 | 29.98379 | -95.34888 | 105 ft | 12 kts | 270° |
| 2026-04-23 13:33 | 29.98380 | -95.34984 | 105 ft | 13 kts | 270° |
| 2026-04-23 13:33 | 29.98380 | -95.35094 | 105 ft | 14 kts | 270° |
| 2026-04-23 13:34 | 29.98381 | -95.35171 | 105 ft | 15 kts | 270° |
| 2026-04-23 13:34 | 29.98391 | -95.35322 | 104 ft | 14 kts | 316° |
| 2026-04-23 13:34 | 29.98477 | -95.35383 | 105 ft | 17 kts | 332° |
| 2026-04-23 13:34 | 29.98595 | -95.35453 | 105 ft | 19 kts | 333° |
| 2026-04-23 13:35 | 29.98715 | -95.35526 | 102 ft | 20 kts | 332° |
| 2026-04-23 13:35 | 29.98795 | -95.35575 | 105 ft | 18 kts | 330° |
| 2026-04-23 13:35 | 29.98821 | -95.35667 | 105 ft | 12 kts | 249° |
| 2026-04-23 13:35 | 29.98784 | -95.35747 | 105 ft | 11 kts | 217° |
| 2026-04-23 13:36 | 29.98628 | -95.35687 | 106 ft | 51 kts | 152° |
| 2026-04-23 13:36 | 29.98082 | -95.35353 | 105 ft | 123 kts | 152° |
| 2026-04-23 13:36 | 29.97180 | -95.34802 | 358 ft | 157 kts | 153° |
| 2026-04-23 13:36 | 29.96227 | -95.34242 | 1168 ft | 155 kts | 153° |
| 2026-04-23 13:37 | 29.95300 | -95.33553 | 1845 ft | 168 kts | 136° |
| 2026-04-23 13:37 | 29.94867 | -95.32217 | 2295 ft | 197 kts | 91° |
| 2026-04-23 13:37 | 29.95414 | -95.30680 | 2862 ft | 226 kts | 47° |
| 2026-04-23 13:37 | 29.96803 | -95.29877 | 3868 ft | 225 kts | 6° |
| 2026-04-23 13:38 | 29.98356 | -95.29837 | 4679 ft | 226 kts | 0° |
| 2026-04-23 13:38 | 29.99938 | -95.29768 | 5451 ft | 227 kts | 5° |
| 2026-04-23 13:38 | 30.01500 | -95.29490 | 6220 ft | 228 kts | 13° |
| 2026-04-23 13:38 | 30.03042 | -95.28951 | 6775 ft | 240 kts | 20° |
| 2026-04-23 13:39 | 30.04654 | -95.28164 | 7105 ft | 261 kts | 24° |
| 2026-04-23 13:39 | 30.06360 | -95.27249 | 7518 ft | 278 kts | 24° |
| 2026-04-23 13:39 | 30.08149 | -95.26287 | 8109 ft | 285 kts | 24° |
| 2026-04-23 13:39 | 30.09868 | -95.25195 | 8952 ft | 285 kts | 31° |
| 2026-04-23 13:40 | 30.11515 | -95.23903 | 9767 ft | 287 kts | 33° |
| 2026-04-23 13:40 | 30.13131 | -95.22536 | 10501 ft | 289 kts | 34° |
| 2026-04-23 13:40 | 30.14759 | -95.21143 | 11184 ft | 293 kts | 34° |
| 2026-04-23 13:40 | 30.16427 | -95.19767 | 11840 ft | 296 kts | 33° |
| 2026-04-23 13:41 | 30.18130 | -95.18404 | 12500 ft | 299 kts | 32° |
| 2026-04-23 13:41 | 30.19850 | -95.17031 | 13155 ft | 303 kts | 32° |
| 2026-04-23 13:41 | 30.21590 | -95.15639 | 13822 ft | 306 kts | 32° |
| 2026-04-23 13:41 | 30.23350 | -95.14227 | 14417 ft | 309 kts | 32° |
| 2026-04-23 13:42 | 30.25126 | -95.12797 | 15023 ft | 312 kts | 32° |
| 2026-04-23 13:42 | 30.26897 | -95.11384 | 15609 ft | 315 kts | 32° |
| 2026-04-23 13:42 | 30.28711 | -95.09935 | 16195 ft | 318 kts | 32° |
| 2026-04-23 13:42 | 30.30543 | -95.08468 | 16763 ft | 322 kts | 32° |
| 2026-04-23 13:43 | 30.32391 | -95.06988 | 17319 ft | 325 kts | 32° |
| 2026-04-23 13:43 | 30.34262 | -95.05488 | 17869 ft | 328 kts | 32° |
| 2026-04-23 13:43 | 30.36149 | -95.03974 | 18382 ft | 331 kts | 31° |
| 2026-04-23 13:43 | 30.38054 | -95.02444 | 18863 ft | 333 kts | 31° |
| 2026-04-23 13:44 | 30.39964 | -95.00912 | 19343 ft | 335 kts | 31° |
| 2026-04-23 13:44 | 30.41906 | -94.99409 | 19827 ft | 337 kts | 30° |
| 2026-04-23 13:44 | 30.43868 | -94.97908 | 20306 ft | 339 kts | 30° |
| 2026-04-23 13:44 | 30.45813 | -94.96423 | 20768 ft | 341 kts | 30° |
| 2026-04-23 13:45 | 30.47796 | -94.94906 | 21226 ft | 343 kts | 30° |
| 2026-04-23 13:45 | 30.49799 | -94.93373 | 21680 ft | 345 kts | 30° |
| 2026-04-23 13:45 | 30.51804 | -94.91836 | 22129 ft | 347 kts | 30° |
| 2026-04-23 13:45 | 30.53825 | -94.90285 | 22582 ft | 349 kts | 30° |
| 2026-04-23 13:46 | 30.55855 | -94.88720 | 23003 ft | 351 kts | 30° |
| 2026-04-23 13:46 | 30.57902 | -94.87156 | 23423 ft | 353 kts | 30° |
| 2026-04-23 13:46 | 30.59955 | -94.85582 | 23805 ft | 355 kts | 30° |
| 2026-04-23 13:46 | 30.62026 | -94.83995 | 24160 ft | 357 kts | 30° |
| 2026-04-23 13:47 | 30.64106 | -94.82393 | 24501 ft | 359 kts | 30° |
| 2026-04-23 13:47 | 30.66199 | -94.80781 | 24837 ft | 361 kts | 30° |
| 2026-04-23 13:47 | 30.68298 | -94.79174 | 25171 ft | 362 kts | 29° |
| 2026-04-23 13:47 | 30.70404 | -94.77548 | 25493 ft | 364 kts | 29° |
| 2026-04-23 13:48 | 30.72494 | -94.75937 | 25805 ft | 366 kts | 29° |
| 2026-04-23 13:48 | 30.74620 | -94.74299 | 26115 ft | 367 kts | 29° |
| 2026-04-23 13:48 | 30.76758 | -94.72656 | 26415 ft | 369 kts | 29° |
| 2026-04-23 13:48 | 30.78903 | -94.71001 | 26713 ft | 370 kts | 29° |
| 2026-04-23 13:49 | 30.81059 | -94.69338 | 27008 ft | 372 kts | 29° |
| 2026-04-23 13:49 | 30.83219 | -94.67664 | 27307 ft | 373 kts | 29° |
| 2026-04-23 13:49 | 30.85360 | -94.66005 | 27582 ft | 375 kts | 29° |
| 2026-04-23 13:49 | 30.87539 | -94.64322 | 27875 ft | 376 kts | 29° |
| 2026-04-23 13:50 | 30.89722 | -94.62636 | 28156 ft | 377 kts | 28° |
| 2026-04-23 13:50 | 30.91914 | -94.60937 | 28425 ft | 379 kts | 29° |
| 2026-04-23 13:50 | 30.94116 | -94.59232 | 28699 ft | 381 kts | 28° |
| 2026-04-23 13:50 | 30.96322 | -94.57522 | 28955 ft | 382 kts | 28° |
| 2026-04-23 13:51 | 30.98535 | -94.55795 | 29207 ft | 384 kts | 31° |
| 2026-04-23 13:51 | 31.00483 | -94.53594 | 29428 ft | 395 kts | 47° |
| 2026-04-23 13:51 | 31.02118 | -94.50994 | 29672 ft | 399 kts | 52° |
| 2026-04-23 13:51 | 31.03526 | -94.48177 | 29898 ft | 405 kts | 58° |
| 2026-04-23 13:52 | 31.04759 | -94.45207 | 30118 ft | 408 kts | 60° |
| 2026-04-23 13:52 | 31.05959 | -94.42203 | 30306 ft | 409 kts | 60° |
| 2026-04-23 13:52 | 31.07154 | -94.39237 | 30490 ft | 410 kts | 60° |
| 2026-04-23 13:52 | 31.08419 | -94.36245 | 30678 ft | 410 kts | 58° |
| 2026-04-23 13:53 | 31.09706 | -94.33258 | 30863 ft | 411 kts | 59° |
| 2026-04-23 13:53 | 31.10998 | -94.30261 | 31039 ft | 412 kts | 59° |
| 2026-04-23 13:53 | 31.12281 | -94.27261 | 31210 ft | 414 kts | 59° |
| 2026-04-23 13:53 | 31.13571 | -94.24254 | 31386 ft | 415 kts | 59° |
| 2026-04-23 13:54 | 31.14851 | -94.21270 | 31542 ft | 416 kts | 59° |
| 2026-04-23 13:54 | 31.16143 | -94.18249 | 31656 ft | 418 kts | 59° |
| 2026-04-23 13:54 | 31.17447 | -94.15196 | 31775 ft | 420 kts | 59° |
| 2026-04-23 13:54 | 31.18759 | -94.12141 | 31973 ft | 420 kts | 59° |
| 2026-04-23 13:55 | 31.20057 | -94.09081 | 32180 ft | 420 kts | 59° |
| 2026-04-23 13:55 | 31.21357 | -94.06028 | 32374 ft | 419 kts | 59° |
| 2026-04-23 13:55 | 31.22661 | -94.02977 | 32571 ft | 419 kts | 59° |
| 2026-04-23 13:55 | 31.23938 | -93.99967 | 32758 ft | 419 kts | 59° |
| 2026-04-23 13:56 | 31.25239 | -93.96909 | 32917 ft | 420 kts | 59° |
| 2026-04-23 13:56 | 31.27872 | -93.90767 | 33012 ft | 425 kts | 59° |
| 2026-04-23 13:57 | 31.30519 | -93.84549 | 33036 ft | 429 kts | 61° |
| 2026-04-23 13:57 | 31.32870 | -93.78073 | 33038 ft | 435 kts | 65° |
| 2026-04-23 13:58 | 31.35018 | -93.71472 | 33042 ft | 438 kts | 65° |
| 2026-04-23 13:58 | 31.37296 | -93.64818 | 33046 ft | 441 kts | 64° |
| 2026-04-23 13:59 | 31.39596 | -93.58126 | 33049 ft | 444 kts | 65° |
| 2026-04-23 13:59 | 31.41916 | -93.51390 | 33048 ft | 447 kts | 65° |
| 2026-04-23 14:00 | 31.43865 | -93.45760 | 33053 ft | 450 kts | 65° |
| 2026-04-23 14:00 | 31.46615 | -93.37831 | 33055 ft | 453 kts | 65° |
| 2026-04-23 14:01 | 31.48951 | -93.30943 | 33055 ft | 455 kts | 65° |
| 2026-04-23 14:01 | 31.51296 | -93.24076 | 33058 ft | 458 kts | 66° |
| 2026-04-23 14:02 | 31.53649 | -93.17120 | 33059 ft | 460 kts | 66° |
| 2026-04-23 14:02 | 31.56017 | -93.10134 | 33057 ft | 461 kts | 66° |
| 2026-04-23 14:03 | 31.58387 | -93.03120 | 33059 ft | 463 kts | 66° |
| 2026-04-23 14:03 | 31.60757 | -92.96085 | 33062 ft | 464 kts | 66° |
| 2026-04-23 14:04 | 31.63122 | -92.89053 | 33057 ft | 466 kts | 66° |
| 2026-04-23 14:04 | 31.65499 | -92.81963 | 33054 ft | 467 kts | 66° |
| 2026-04-23 14:05 | 31.67881 | -92.74849 | 33052 ft | 468 kts | 67° |
| 2026-04-23 14:05 | 31.70261 | -92.67722 | 33047 ft | 469 kts | 67° |
| 2026-04-23 14:06 | 31.72643 | -92.60570 | 33048 ft | 470 kts | 67° |
| 2026-04-23 14:06 | 31.75025 | -92.53406 | 33048 ft | 471 kts | 67° |
| 2026-04-23 14:07 | 31.77394 | -92.46263 | 33046 ft | 472 kts | 68° |
| 2026-04-23 14:07 | 31.80972 | -92.35459 | 33052 ft | 473 kts | 68° |
| 2026-04-23 14:08 | 31.83356 | -92.28227 | 33051 ft | 474 kts | 68° |
| 2026-04-23 14:08 | 31.85742 | -92.20989 | 33057 ft | 475 kts | 68° |
| 2026-04-23 14:09 | 31.88126 | -92.13733 | 33058 ft | 475 kts | 68° |
| 2026-04-23 14:09 | 31.90510 | -92.06465 | 33061 ft | 476 kts | 68° |
| 2026-04-23 14:10 | 31.92876 | -91.99225 | 33063 ft | 477 kts | 68° |
| 2026-04-23 14:10 | 31.95255 | -91.91931 | 33065 ft | 477 kts | 68° |
| 2026-04-23 14:11 | 31.97633 | -91.84630 | 33067 ft | 478 kts | 68° |
| 2026-04-23 14:11 | 32.00010 | -91.77308 | 33069 ft | 478 kts | 68° |
| 2026-04-23 14:12 | 32.02383 | -91.69987 | 33072 ft | 478 kts | 68° |
| 2026-04-23 14:12 | 32.04758 | -91.62653 | 33076 ft | 479 kts | 68° |
| 2026-04-23 14:13 | 32.07097 | -91.55356 | 33085 ft | 479 kts | 70° |
| 2026-04-23 14:13 | 32.09087 | -91.47870 | 33087 ft | 479 kts | 73° |
| 2026-04-23 14:14 | 32.10924 | -91.40308 | 33092 ft | 479 kts | 73° |
| 2026-04-23 14:14 | 32.12829 | -91.32775 | 33094 ft | 479 kts | 73° |
| 2026-04-23 14:15 | 32.14746 | -91.25252 | 33098 ft | 478 kts | 73° |
| 2026-04-23 14:15 | 32.16639 | -91.17781 | 33096 ft | 478 kts | 73° |
| 2026-04-23 14:16 | 32.18533 | -91.10256 | 33095 ft | 477 kts | 73° |
| 2026-04-23 14:16 | 32.20434 | -91.02760 | 33092 ft | 476 kts | 73° |
| 2026-04-23 14:17 | 32.22364 | -90.95283 | 33092 ft | 476 kts | 72° |
| 2026-04-23 14:17 | 32.24258 | -90.87794 | 33091 ft | 475 kts | 73° |
| 2026-04-23 14:18 | 32.26120 | -90.80364 | 33091 ft | 474 kts | 73° |
| 2026-04-23 14:18 | 32.27979 | -90.72890 | 33096 ft | 473 kts | 73° |
| 2026-04-23 14:19 | 32.29803 | -90.65420 | 33111 ft | 473 kts | 73° |
| 2026-04-23 14:19 | 32.31637 | -90.57961 | 33117 ft | 472 kts | 73° |
| 2026-04-23 14:20 | 32.33483 | -90.50509 | 33109 ft | 472 kts | 73° |
| 2026-04-23 14:20 | 32.35324 | -90.43056 | 33111 ft | 471 kts | 73° |
| 2026-04-23 14:21 | 32.37154 | -90.35602 | 33111 ft | 471 kts | 73° |
| 2026-04-23 14:21 | 32.38963 | -90.28202 | 33128 ft | 471 kts | 73° |
| 2026-04-23 14:22 | 32.40792 | -90.20760 | 33129 ft | 470 kts | 73° |
| 2026-04-23 14:22 | 32.42729 | -90.13376 | 33124 ft | 469 kts | 65° |
| 2026-04-23 14:23 | 32.45430 | -90.07817 | 33125 ft | 469 kts | 57° |
| 2026-04-23 14:23 | 32.49115 | -90.01443 | 33123 ft | 468 kts | 53° |
| 2026-04-23 14:24 | 32.53206 | -89.95426 | 33113 ft | 468 kts | 50° |
| 2026-04-23 14:24 | 32.57299 | -89.89490 | 33103 ft | 468 kts | 51° |
| 2026-04-23 14:25 | 32.61359 | -89.83438 | 33089 ft | 468 kts | 51° |
| 2026-04-23 14:25 | 32.65419 | -89.77403 | 33063 ft | 468 kts | 51° |
| 2026-04-23 14:26 | 32.69464 | -89.71356 | 33061 ft | 468 kts | 51° |
| 2026-04-23 14:26 | 32.73519 | -89.65320 | 33048 ft | 468 kts | 51° |
| 2026-04-23 14:27 | 32.77569 | -89.59264 | 33045 ft | 467 kts | 51° |
| 2026-04-23 14:27 | 32.81458 | -89.53435 | 33040 ft | 467 kts | 51° |
| 2026-04-23 14:28 | 32.85283 | -89.47694 | 33053 ft | 467 kts | 51° |
| 2026-04-23 14:28 | 32.89320 | -89.41631 | 33061 ft | 467 kts | 51° |
| 2026-04-23 14:29 | 32.93348 | -89.35559 | 33072 ft | 467 kts | 51° |
| 2026-04-23 14:29 | 32.97386 | -89.29479 | 33067 ft | 468 kts | 51° |
| 2026-04-23 14:30 | 33.01421 | -89.23379 | 33099 ft | 468 kts | 51° |
| 2026-04-23 14:30 | 33.05421 | -89.17325 | 33137 ft | 468 kts | 51° |
| 2026-04-23 14:31 | 33.09447 | -89.11223 | 33171 ft | 468 kts | 51° |
| 2026-04-23 14:31 | 33.13466 | -89.05119 | 33167 ft | 468 kts | 52° |
| 2026-04-23 14:32 | 33.17486 | -88.99016 | 33171 ft | 468 kts | 52° |
| 2026-04-23 14:32 | 33.21507 | -88.92893 | 33152 ft | 468 kts | 51° |
| 2026-04-23 14:33 | 33.25524 | -88.86765 | 33125 ft | 468 kts | 52° |
| 2026-04-23 14:33 | 33.29513 | -88.80669 | 33116 ft | 468 kts | 52° |
| 2026-04-23 14:34 | 33.33521 | -88.74531 | 33149 ft | 468 kts | 51° |
| 2026-04-23 14:34 | 33.37530 | -88.68390 | 33164 ft | 468 kts | 51° |
| 2026-04-23 14:35 | 33.41539 | -88.62230 | 33159 ft | 468 kts | 51° |
| 2026-04-23 14:35 | 33.45546 | -88.56069 | 33156 ft | 468 kts | 51° |
| 2026-04-23 14:36 | 33.49586 | -88.50021 | 33159 ft | 468 kts | 48° |
| 2026-04-23 14:36 | 33.54109 | -88.44407 | 33117 ft | 468 kts | 44° |
| 2026-04-23 14:37 | 33.58714 | -88.38887 | 33110 ft | 468 kts | 45° |
| 2026-04-23 14:37 | 33.63241 | -88.33260 | 33111 ft | 468 kts | 45° |
| 2026-04-23 14:38 | 33.67747 | -88.27667 | 33109 ft | 468 kts | 45° |
| 2026-04-23 14:38 | 33.72272 | -88.22044 | 33108 ft | 468 kts | 45° |
| 2026-04-23 14:39 | 33.76802 | -88.16417 | 33113 ft | 468 kts | 45° |
| 2026-04-23 14:39 | 33.81308 | -88.10764 | 33114 ft | 468 kts | 46° |
| 2026-04-23 14:40 | 33.85811 | -88.05096 | 33115 ft | 468 kts | 45° |
| 2026-04-23 14:40 | 33.90305 | -87.99481 | 33121 ft | 468 kts | 45° |
| 2026-04-23 14:41 | 33.94823 | -87.93824 | 33116 ft | 468 kts | 45° |
| 2026-04-23 14:41 | 33.99344 | -87.88153 | 33122 ft | 469 kts | 45° |
| 2026-04-23 14:42 | 34.03859 | -87.82475 | 33125 ft | 469 kts | 45° |
| 2026-04-23 14:42 | 34.06121 | -87.79621 | 32586 ft | 467 kts | 45° |
| 2026-04-23 14:42 | 34.08346 | -87.76829 | 31992 ft | 456 kts | 45° |
| 2026-04-23 14:43 | 34.10521 | -87.74099 | 31392 ft | 447 kts | 45° |
| 2026-04-23 14:43 | 34.12622 | -87.71437 | 30839 ft | 439 kts | 45° |
| 2026-04-23 14:43 | 34.14717 | -87.68781 | 30276 ft | 433 kts | 45° |
| 2026-04-23 14:43 | 34.16780 | -87.66160 | 29635 ft | 427 kts | 45° |
| 2026-04-23 14:44 | 34.18821 | -87.63584 | 28987 ft | 422 kts | 45° |
| 2026-04-23 14:44 | 34.20842 | -87.61041 | 28360 ft | 417 kts | 45° |
| 2026-04-23 14:44 | 34.22838 | -87.58530 | 27744 ft | 412 kts | 45° |
| 2026-04-23 14:44 | 34.24785 | -87.56070 | 27152 ft | 408 kts | 45° |
| 2026-04-23 14:45 | 34.26733 | -87.53587 | 26557 ft | 404 kts | 45° |
| 2026-04-23 14:45 | 34.28660 | -87.51130 | 25990 ft | 401 kts | 45° |
| 2026-04-23 14:45 | 34.30572 | -87.48696 | 25424 ft | 398 kts | 45° |
| 2026-04-23 14:45 | 34.32474 | -87.46281 | 24867 ft | 395 kts | 45° |
| 2026-04-23 14:46 | 34.34366 | -87.43883 | 24323 ft | 392 kts | 45° |
| 2026-04-23 14:46 | 34.36251 | -87.41501 | 23786 ft | 390 kts | 45° |
| 2026-04-23 14:46 | 34.38116 | -87.39124 | 23168 ft | 387 kts | 45° |
| 2026-04-23 14:46 | 34.39972 | -87.36760 | 22550 ft | 386 kts | 45° |
| 2026-04-23 14:47 | 34.41783 | -87.34430 | 21951 ft | 384 kts | 46° |
| 2026-04-23 14:47 | 34.43612 | -87.32085 | 21353 ft | 382 kts | 45° |
| 2026-04-23 14:47 | 34.45443 | -87.29755 | 20767 ft | 381 kts | 45° |
| 2026-04-23 14:47 | 34.47268 | -87.27431 | 20198 ft | 380 kts | 45° |
| 2026-04-23 14:48 | 34.49254 | -87.25342 | 19624 ft | 376 kts | 28° |
| 2026-04-23 14:48 | 34.51694 | -87.24272 | 19061 ft | 373 kts | 13° |
| 2026-04-23 14:48 | 34.53996 | -87.23632 | 18559 ft | 372 kts | 11° |
| 2026-04-23 14:48 | 34.56534 | -87.22992 | 17920 ft | 372 kts | 10° |
| 2026-04-23 14:49 | 34.59075 | -87.22400 | 17292 ft | 371 kts | 9° |
| 2026-04-23 14:49 | 34.61618 | -87.21837 | 16659 ft | 371 kts | 9° |
| 2026-04-23 14:49 | 34.64153 | -87.21283 | 16046 ft | 370 kts | 9° |
| 2026-04-23 14:49 | 34.66679 | -87.20740 | 15448 ft | 368 kts | 9° |
| 2026-04-23 14:50 | 34.69202 | -87.20217 | 14852 ft | 367 kts | 9° |
| 2026-04-23 14:50 | 34.71717 | -87.19696 | 14273 ft | 365 kts | 9° |
| 2026-04-23 14:50 | 34.74217 | -87.19194 | 13652 ft | 364 kts | 9° |
| 2026-04-23 14:50 | 34.76687 | -87.18694 | 12978 ft | 354 kts | 9° |
| 2026-04-23 14:51 | 34.79077 | -87.18219 | 12351 ft | 344 kts | 9° |
| 2026-04-23 14:51 | 34.81397 | -87.17764 | 11734 ft | 335 kts | 9° |
| 2026-04-23 14:51 | 34.83681 | -87.17325 | 11119 ft | 329 kts | 9° |
| 2026-04-23 14:51 | 34.85925 | -87.16899 | 10524 ft | 324 kts | 9° |
| 2026-04-23 14:52 | 34.88135 | -87.16480 | 9931 ft | 319 kts | 9° |
| 2026-04-23 14:52 | 34.90295 | -87.15942 | 9282 ft | 314 kts | 22° |
| 2026-04-23 14:52 | 34.92029 | -87.14443 | 8666 ft | 305 kts | 53° |
| 2026-04-23 14:52 | 34.92892 | -87.12166 | 8052 ft | 293 kts | 84° |
| 2026-04-23 14:53 | 34.93000 | -87.09717 | 7461 ft | 289 kts | 92° |
| 2026-04-23 14:53 | 34.92989 | -87.07284 | 6893 ft | 285 kts | 94° |
| 2026-04-23 14:53 | 34.92942 | -87.04907 | 6325 ft | 282 kts | 94° |
| 2026-04-23 14:53 | 34.92795 | -87.02537 | 5730 ft | 277 kts | 103° |
| 2026-04-23 14:54 | 34.92368 | -87.00257 | 5223 ft | 273 kts | 107° |
| 2026-04-23 14:54 | 34.91905 | -86.98027 | 4660 ft | 270 kts | 107° |
| 2026-04-23 14:54 | 34.91418 | -86.95817 | 4076 ft | 268 kts | 108° |
| 2026-04-23 14:54 | 34.90869 | -86.93690 | 3579 ft | 265 kts | 111° |
| 2026-04-23 14:55 | 34.90261 | -86.91561 | 3044 ft | 268 kts | 111° |
| 2026-04-23 14:55 | 34.89634 | -86.89445 | 2792 ft | 262 kts | 112° |
| 2026-04-23 14:55 | 34.89006 | -86.87393 | 2635 ft | 252 kts | 112° |
| 2026-04-23 14:55 | 34.88415 | -86.85433 | 2575 ft | 240 kts | 112° |
| 2026-04-23 14:56 | 34.87872 | -86.83619 | 2574 ft | 210 kts | 111° |
| 2026-04-23 14:56 | 34.87364 | -86.81952 | 2630 ft | 211 kts | 113° |
| 2026-04-23 14:56 | 34.86803 | -86.80279 | 2561 ft | 214 kts | 120° |
| 2026-04-23 14:56 | 34.85751 | -86.79146 | 2505 ft | 203 kts | 159° |
| 2026-04-23 14:57 | 34.84412 | -86.78629 | 2504 ft | 203 kts | 166° |
| 2026-04-23 14:57 | 34.83031 | -86.78217 | 2486 ft | 198 kts | 169° |
| 2026-04-23 14:57 | 34.81825 | -86.77945 | 2451 ft | 157 kts | 175° |
| 2026-04-23 14:57 | 34.80851 | -86.77851 | 2418 ft | 124 kts | 181° |
| 2026-04-23 14:58 | 34.79957 | -86.77857 | 2386 ft | 142 kts | 184° |
| 2026-04-23 14:58 | 34.79056 | -86.77875 | 2386 ft | 115 kts | 184° |
| 2026-04-23 14:58 | 34.78296 | -86.77900 | 2129 ft | 119 kts | 185° |
| 2026-04-23 14:58 | 34.77383 | -86.77964 | 2266 ft | 145 kts | 185° |
| 2026-04-23 14:59 | 34.76396 | -86.78007 | 2394 ft | 135 kts | 183° |
| 2026-04-23 14:59 | 34.75410 | -86.78022 | 2429 ft | 150 kts | 182° |
| 2026-04-23 14:59 | 34.74365 | -86.78019 | 2469 ft | 147 kts | 181° |
| 2026-04-23 14:59 | 34.73373 | -86.78012 | 2445 ft | 138 kts | 180° |
| 2026-04-23 15:00 | 34.72388 | -86.78027 | 2210 ft | 147 kts | 181° |
| 2026-04-23 15:00 | 34.71347 | -86.78046 | 1863 ft | 152 kts | 184° |
| 2026-04-23 15:00 | 34.70294 | -86.78080 | 1643 ft | 147 kts | 182° |
| 2026-04-23 15:00 | 34.69290 | -86.78109 | 1344 ft | 143 kts | 184° |
| 2026-04-23 15:01 | 34.68306 | -86.78139 | 1166 ft | 143 kts | 180° |
| 2026-04-23 15:01 | 34.67297 | -86.78154 | 987 ft | 144 kts | 181° |
| 2026-04-23 15:01 | 34.66320 | -86.78175 | 825 ft | 141 kts | 182° |
| 2026-04-23 15:01 | 34.65330 | -86.78195 | 675 ft | 140 kts | 182° |
| 2026-04-23 15:02 | 34.64705 | -86.78213 | 638 ft | 126 kts | 182° |
| 2026-04-23 15:02 | 34.63773 | -86.78244 | 620 ft | 49 kts | 181° |
| 2026-04-23 15:02 | 34.63554 | -86.78244 | 617 ft | 16 kts | 166° |
| 2026-04-23 15:02 | 34.63476 | -86.78166 | 618 ft | 16 kts | 104° |
| 2026-04-23 15:03 | 34.63483 | -86.78034 | 626 ft | 15 kts | 58° |
| 2026-04-23 15:03 | 34.63568 | -86.78002 | 626 ft | 14 kts | 5° |
| 2026-04-23 15:03 | 34.63666 | -86.77997 | 624 ft | 15 kts | 1° |
| 2026-04-23 15:03 | 34.63772 | -86.77993 | 616 ft | 16 kts | 1° |
| 2026-04-23 15:04 | 34.63886 | -86.77990 | 621 ft | 17 kts | 0° |
| 2026-04-23 15:04 | 34.64005 | -86.77989 | 624 ft | 18 kts | 0° |
| 2026-04-23 15:04 | 34.64096 | -86.77989 | 622 ft | 5 kts | 0° |
| 2026-04-23 15:04 | 34.64138 | -86.77988 | 620 ft | 7 kts | 1° |
| 2026-04-23 15:05 | 34.64191 | -86.77986 | 623 ft | 9 kts | 2° |
| 2026-04-23 15:05 | 34.64257 | -86.77982 | 619 ft | 10 kts | 2° |
| 2026-04-23 15:05 | 34.64332 | -86.77964 | 616 ft | 12 kts | 32° |
| 2026-04-23 15:05 | 34.64381 | -86.77899 | 620 ft | 10 kts | 53° |
| 2026-04-23 15:06 | 34.64398 | -86.77874 | 618 ft | 0 kts | 48° |
| 2026-04-23 15:06 | 34.64402 | -86.77868 | 616 ft | 1 kts | 48° |
| 2026-04-23 15:06 | 34.64405 | -86.77864 | 616 ft | 0 kts | 48° |
| 2026-04-23 15:06 | 34.64405 | -86.77863 | 628 ft | 0 kts | 48° |
| 2026-04-23 15:07 | 34.64442 | -86.77815 | 620 ft | 16 kts | 47° |
| 2026-04-23 15:07 | 34.64502 | -86.77731 | 618 ft | 6 kts | 50° |
| 2026-04-23 15:07 | 34.64527 | -86.77684 | 619 ft | 8 kts | 72° |
| 2026-04-23 15:07 | 34.64548 | -86.77619 | 621 ft | 9 kts | 64° |
| 2026-04-23 15:08 | 34.64570 | -86.77564 | 618 ft | 4 kts | 64° |
| 2026-04-23 15:08 | 34.64575 | -86.77553 | 619 ft | 0 kts | 64° |